Tropical Cyclones
[Index]
Main Index Home Page Stock Weather Photos Extreme Storms Discussion Storm News and Storm Chasing Reports Tropical Cyclones / Hurricanes / Typhoons Weather Data and Links Wild Fires / Bushfires Weather Observation Techniques Weather Picture Catalogue Tornado Pictures and Reports Stock Video Footage and DVDs for sale
Season 1979-1980 Tropical Cyclone PAUL Track Map
Season 1979-1980 Summaries: [BoM-AU] [JTWC-AU] [JTWC-SIO] [JTWC-SPAC] [JTWC-SH]
<<- Previous TC | JTWC 1979-1980 Season | Next TC ->>

click for intensity scale information  Lat/long Grid: Show Hide

 Date Labels: Show Hide

Joint Typhoon Warning Centre Cyclone Data

Name: PAUL

03 Jan 1980 00:00 UTC to 12 Jan 1980 12:00 UTC

    date/time    lat    long     hPa   cat  kts
1980-01-03 00   14.0   136.0                  25          
1980-01-03 06   14.8   136.8                  25          
1980-01-03 12   15.5   137.5                  25          
1980-01-03 18   16.1   138.1                  30          
1980-01-04 00   16.5   138.5                  30          
1980-01-04 06   16.7   138.7                  30          
1980-01-04 12   16.8   139.0                  30          
1980-01-04 18   16.9   139.2                  35          
1980-01-05 00   17.2   139.5                  35          
1980-01-05 06   17.6   139.9                  35          
1980-01-05 12   18.0   140.5            1     40          
1980-01-05 18   18.4   141.0            1     40          
1980-01-06 00   18.8   141.7            1     45          
1980-01-06 06   19.3   143.9            1     50          
1980-01-06 12   20.0   146.5            1     50          
1980-01-06 18   20.7   147.7            2     55          
1980-01-07 00   21.5   149.0            2     60          
1980-01-07 06   22.5   151.4            2     60          
1980-01-07 12   23.6   153.6            2     55          
1980-01-07 18   24.5   154.8            1     45          
1980-01-08 00   25.6   155.9            1     45          
1980-01-08 06   27.6   157.5            1     45          
1980-01-08 12   29.9   159.1            1     50          
1980-01-08 18   32.0   160.5            2     55          
1980-01-09 00   34.0   160.9            2     60          
1980-01-09 06   35.9   160.2            2     60          
1980-01-09 12   37.5   159.0            2     60          
1980-01-09 18   38.3   157.8            2     60          
1980-01-10 00   39.0   156.5            2     55          
1980-01-10 06   40.3   155.3            1     45          
1980-01-10 12   41.6   154.0                  35          
1980-01-10 18   43.1   152.9                  30          
1980-01-11 00   44.5   152.0                  30          
1980-01-11 06   45.1   151.6                  30          
1980-01-11 12   45.5   152.0                  30          
1980-01-11 18   46.3   153.1                  25          
1980-01-12 00   47.0   155.0                  25          
1980-01-12 06   47.2   157.6                  25          
1980-01-12 12   47.0   161.0                  25          
Winds are 1-min average.

Tropical cyclone tracks developed by Michael Bath using data from the Joint Typhoon Warning Centre Best Tracks and Google Maps.


[Australian Severe Weather index] [Copyright Notice] [Email Contacts] [Search This Site] [Privacy Policy]
Document: tropical_cyclone_paul.htm Updated: 18 September 2016